Murphys, California
Current Conditions -  °F | °C
As of 11:15 AM on Sunday 21 Dec 2014 (Local Time) from KO22 Reporting Station
Overcast Overcast  
Wind Chill: 59°   Ceiling: 2700
Heat Index: 59°   Visibility: 10mi
Dew Point: 59°   Wind: 5mph
Humidity: 100%   Direction: 290°WNW
Pressure: 30.27"   Gusts: NA
Location:  38.15°N, 120.46°W
Report Text: KO22 211915Z AUTO 29004KT 10SM OVC027 15/15 A3027 RMK AO1
Loading
Personal Weather Stations






























Interactive Weather Map New forecast layout! Learn more

10-Day Weather Forecast

Advertisements
Track Severe Weather on mobile